createdAt,value
2023-04-15T00:00:56.490Z,93.95
2023-04-15T00:03:23.484Z,95.10
2023-04-15T00:05:50.460Z,94.81
2023-04-15T00:08:17.197Z,94.47
2023-04-15T00:10:43.899Z,95.09
2023-04-15T00:13:11.969Z,94.97
2023-04-15T00:15:38.694Z,94.81
2023-04-15T00:18:05.397Z,94.94
2023-04-15T00:20:32.111Z,94.55
2023-04-15T00:22:58.813Z,95.16
2023-04-15T00:25:25.506Z,95.10
2023-04-15T00:27:52.206Z,94.20
2023-04-15T00:30:20.369Z,94.48
2023-04-15T00:32:47.143Z,93.94
2023-04-15T00:35:14.086Z,94.57
2023-04-15T00:37:40.821Z,94.16
2023-04-15T00:40:09.582Z,94.16
2023-04-15T00:42:36.311Z,94.42
2023-04-15T00:45:03.168Z,93.61
2023-04-15T00:47:31.325Z,94.09
2023-04-15T00:49:58.072Z,93.67
2023-04-15T00:52:24.820Z,93.40
2023-04-15T00:54:51.518Z,93.73
2023-04-15T00:57:18.218Z,93.67
2023-04-15T00:59:44.996Z,94.07
2023-04-15T01:02:11.781Z,92.89
2023-04-15T01:04:39.954Z,93.82
2023-04-15T01:07:06.643Z,93.88
2023-04-15T01:09:33.360Z,93.69
2023-04-15T01:12:00.064Z,93.66
2023-04-15T01:14:26.781Z,93.87
2023-04-15T01:16:53.465Z,93.28
2023-04-15T01:19:20.121Z,94.46
2023-04-15T01:21:48.214Z,94.43
2023-04-15T01:24:15.655Z,93.65
2023-04-15T01:26:44.634Z,93.96
2023-04-15T01:29:11.492Z,93.95
2023-04-15T01:31:38.209Z,94.31
2023-04-15T01:34:04.928Z,93.91
2023-04-15T01:36:31.669Z,93.73
2023-04-15T01:38:58.506Z,94.28
2023-04-15T01:41:25.770Z,94.56
2023-04-15T01:43:53.947Z,94.67
2023-04-15T01:46:20.711Z,94.32
2023-04-15T01:48:47.422Z,93.59
2023-04-15T01:51:14.153Z,92.97
2023-04-15T01:53:40.859Z,93.82
2023-04-15T01:56:07.982Z,93.72
2023-04-15T01:58:34.731Z,92.92
2023-04-15T02:01:03.313Z,93.87
2023-04-15T02:03:30.151Z,93.63
2023-04-15T02:05:57.011Z,93.86
2023-04-15T02:08:23.723Z,93.19
2023-04-15T02:10:50.525Z,93.19
2023-04-15T02:13:17.217Z,93.24
2023-04-15T02:15:47.717Z,92.81
2023-04-15T02:18:15.925Z,91.59
2023-04-15T02:20:42.622Z,92.59
2023-04-15T02:23:09.295Z,93.50
2023-04-15T02:25:36.009Z,94.02
2023-04-15T02:28:02.776Z,93.10
2023-04-15T02:30:29.462Z,94.11
2023-04-15T02:32:56.240Z,94.71
2023-04-15T02:35:24.510Z,94.97
2023-04-15T02:37:51.224Z,93.78
2023-04-15T02:40:18.084Z,93.84
2023-04-15T02:42:44.818Z,93.43
2023-04-15T02:45:11.805Z,94.64
2023-04-15T02:47:38.604Z,94.49
2023-04-15T02:50:08.233Z,94.64
2023-04-15T02:52:36.340Z,94.54
2023-04-15T02:55:03.170Z,94.40
2023-04-15T02:57:29.884Z,94.43
2023-04-15T02:59:57.001Z,94.47
2023-04-15T03:02:24.337Z,94.07
2023-04-15T03:04:51.306Z,93.88
2023-04-15T03:07:18.019Z,94.46
2023-04-15T03:09:46.112Z,94.95
2023-04-15T03:12:12.909Z,94.98
2023-04-15T03:14:39.583Z,95.10
2023-04-15T03:17:06.232Z,94.95
2023-04-15T03:19:32.993Z,95.18
2023-04-15T03:21:59.666Z,95.51
2023-04-15T03:24:26.357Z,95.25
2023-04-15T03:26:54.429Z,95.24
2023-04-15T03:29:21.163Z,95.32
2023-04-15T03:31:47.827Z,95.55
2023-04-15T03:34:14.587Z,96.25
2023-04-15T03:36:41.362Z,96.59
2023-04-15T03:39:09.530Z,96.35
2023-04-15T03:41:36.283Z,96.49
2023-04-15T03:44:04.519Z,96.70
2023-04-15T03:46:31.255Z,96.73
2023-04-15T03:48:58.575Z,96.34
2023-04-15T03:51:25.389Z,96.09
2023-04-15T03:53:52.120Z,96.26
2023-04-15T03:56:18.843Z,96.98
2023-04-15T03:58:45.545Z,97.13
2023-04-15T04:01:13.625Z,97.10
2023-04-15T04:03:40.478Z,96.18
2023-04-15T04:06:07.301Z,96.25
2023-04-15T04:08:33.993Z,96.83
2023-04-15T04:11:00.701Z,96.96
2023-04-15T04:13:27.417Z,96.71
2023-04-15T04:15:54.178Z,96.73
2023-04-15T04:18:22.634Z,95.72
2023-04-15T04:20:49.323Z,96.12
2023-04-15T04:23:16.067Z,96.45
2023-04-15T04:25:42.913Z,96.44
2023-04-15T04:28:09.803Z,96.51
2023-04-15T04:30:36.469Z,96.37
2023-04-15T04:33:03.274Z,96.45
2023-04-15T04:35:31.460Z,96.06
2023-04-15T04:37:58.121Z,95.88
2023-04-15T04:40:24.882Z,95.67
2023-04-15T04:42:51.653Z,95.67
2023-04-15T04:45:18.413Z,95.39
2023-04-15T04:47:45.311Z,94.65
2023-04-15T04:50:12.147Z,94.56
2023-04-15T04:52:40.211Z,94.56
2023-04-15T04:55:07.503Z,93.74
2023-04-15T04:57:34.162Z,92.62
2023-04-15T05:00:00.828Z,90.60
2023-04-15T05:02:27.893Z,90.61
2023-04-15T05:04:54.792Z,89.74
2023-04-15T05:07:21.457Z,90.34
2023-04-15T05:09:49.574Z,91.22
2023-04-15T05:12:16.271Z,89.61
2023-04-15T05:14:42.925Z,90.07
2023-04-15T05:17:09.697Z,88.46
2023-04-15T05:19:36.365Z,88.07
2023-04-15T05:22:03.013Z,90.36
2023-04-15T05:24:29.700Z,90.87
2023-04-15T05:26:57.734Z,92.57
2023-04-15T05:29:24.458Z,91.74
2023-04-15T05:31:51.216Z,91.43
2023-04-15T05:34:17.924Z,90.75
2023-04-15T05:36:44.589Z,88.99
2023-04-15T05:39:11.328Z,85.99
2023-04-15T05:41:38.043Z,86.73
2023-04-15T05:44:06.239Z,84.44
2023-04-15T05:46:32.953Z,83.21
2023-04-15T05:48:59.788Z,85.84
2023-04-15T05:51:26.682Z,81.59
2023-04-15T05:53:53.408Z,78.23
2023-04-15T05:56:20.117Z,78.64
2023-04-15T05:58:46.752Z,82.07
2023-04-15T06:01:14.802Z,81.78
2023-04-15T06:03:41.738Z,76.74
2023-04-15T06:06:08.531Z,71.58
2023-04-15T06:08:35.264Z,71.94
2023-04-15T06:11:01.948Z,69.95
2023-04-15T06:13:28.638Z,73.69
2023-04-15T06:15:55.424Z,76.20
2023-04-15T06:18:23.556Z,79.30
2023-04-15T06:20:50.248Z,79.04
2023-04-15T06:23:16.942Z,76.56
2023-04-15T06:25:43.685Z,76.58
2023-04-15T06:28:10.382Z,76.49
2023-04-15T06:30:37.157Z,75.52
2023-04-15T06:33:04.081Z,75.90
2023-04-15T06:35:32.241Z,70.70
2023-04-15T06:37:59.008Z,72.97
2023-04-15T06:40:25.718Z,70.98
2023-04-15T06:42:52.381Z,68.20
2023-04-15T06:45:19.123Z,68.23
2023-04-15T06:47:45.897Z,72.79
2023-04-15T06:50:12.648Z,65.71
2023-04-15T06:52:40.750Z,70.14
2023-04-15T06:55:08.270Z,68.06
2023-04-15T06:57:35.297Z,68.58
2023-04-15T07:00:02.166Z,67.08
2023-04-15T07:02:29.006Z,66.45
2023-04-15T07:04:55.833Z,61.97
2023-04-15T07:07:22.621Z,63.06
2023-04-15T07:09:50.690Z,59.34
2023-04-15T07:12:17.374Z,62.62
2023-04-15T07:14:44.134Z,60.41
2023-04-15T07:17:10.817Z,63.95
2023-04-15T07:19:37.579Z,64.34
2023-04-15T07:22:04.344Z,59.09
2023-04-15T07:24:31.024Z,57.86
2023-04-15T07:27:00.800Z,59.88
2023-04-15T07:29:28.066Z,60.22
2023-04-15T07:31:54.925Z,62.70
2023-04-15T07:34:21.786Z,62.08
2023-04-15T07:36:48.537Z,61.87
2023-04-15T07:39:15.214Z,64.65
2023-04-15T07:41:41.887Z,64.30
2023-04-15T07:44:10.112Z,63.64
2023-04-15T07:46:36.916Z,59.94
2023-04-15T07:49:03.957Z,58.29
2023-04-15T07:51:30.985Z,60.29
2023-04-15T07:53:57.704Z,57.45
2023-04-15T07:56:24.490Z,57.46
2023-04-15T07:58:51.233Z,52.54
2023-04-15T08:01:19.282Z,51.96
2023-04-15T08:03:46.157Z,60.31
2023-04-15T08:06:12.994Z,60.43
2023-04-15T08:08:39.703Z,59.12
2023-04-15T08:11:06.396Z,59.95
2023-04-15T08:13:33.136Z,57.05
2023-04-15T08:16:17.829Z,57.70
2023-04-15T08:18:45.994Z,59.36
2023-04-15T08:21:12.645Z,61.96
2023-04-15T08:23:39.362Z,58.38
2023-04-15T08:26:06.125Z,53.60
2023-04-15T08:28:32.825Z,58.88
2023-04-15T08:30:59.519Z,61.79
2023-04-15T08:33:26.225Z,58.77
2023-04-15T08:35:54.293Z,58.06
2023-04-15T08:38:20.994Z,60.52
2023-04-15T08:40:47.731Z,60.67
2023-04-15T08:43:16.774Z,62.29
2023-04-15T08:45:43.507Z,64.50
2023-04-15T08:48:10.420Z,65.10
2023-04-15T08:50:37.087Z,64.66
2023-04-15T08:53:05.196Z,62.77
2023-04-15T08:55:33.459Z,59.90
2023-04-15T08:58:00.463Z,61.37
2023-04-15T09:00:27.155Z,61.36
2023-04-15T09:02:54.027Z,59.86
2023-04-15T09:05:20.810Z,59.65
2023-04-15T09:07:47.558Z,58.59
2023-04-15T09:10:15.850Z,55.25
2023-04-15T09:12:42.541Z,59.47
2023-04-15T09:15:11.353Z,55.89
2023-04-15T09:17:41.525Z,58.00
2023-04-15T09:20:09.285Z,57.32
2023-04-15T09:22:36.279Z,59.95
2023-04-15T09:25:03.055Z,59.66
2023-04-15T09:27:31.111Z,59.22
2023-04-15T09:29:57.787Z,60.89
2023-04-15T09:32:24.554Z,61.31
2023-04-15T09:34:51.271Z,61.74
2023-04-15T09:37:31.532Z,63.63
2023-04-15T09:39:58.662Z,64.76
2023-04-15T09:42:25.424Z,65.29
2023-04-15T09:44:53.495Z,68.21
2023-04-15T09:47:29.244Z,71.08
2023-04-15T09:49:56.032Z,69.74
2023-04-15T09:52:22.767Z,70.87
2023-04-15T09:54:49.608Z,69.39
2023-04-15T09:57:16.325Z,65.98
2023-04-15T09:59:43.069Z,64.55
2023-04-15T10:02:11.403Z,62.87
2023-04-15T10:04:40.464Z,63.05
2023-04-15T10:07:07.531Z,63.46
2023-04-15T10:09:34.317Z,65.44
2023-04-15T10:12:01.009Z,66.30
2023-04-15T10:14:28.753Z,66.73
2023-04-15T10:16:56.001Z,67.16
2023-04-15T10:19:24.345Z,67.49
2023-04-15T10:21:51.042Z,65.87
2023-04-15T10:24:18.015Z,66.34
2023-04-15T10:26:44.829Z,67.09
2023-04-15T10:29:11.510Z,67.18
2023-04-15T10:31:38.432Z,69.06
2023-04-15T10:34:05.318Z,68.56
2023-04-15T10:36:33.398Z,66.94
2023-04-15T10:39:00.143Z,66.89
2023-04-15T10:41:27.180Z,67.72
2023-04-15T10:43:54.942Z,67.67
2023-04-15T10:46:22.777Z,68.79
2023-04-15T10:48:50.489Z,68.47
2023-04-15T10:51:17.273Z,68.97
2023-04-15T10:53:45.402Z,71.30
2023-04-15T10:56:12.060Z,74.08
2023-04-15T10:58:41.987Z,73.97
2023-04-15T11:01:08.789Z,73.01
2023-04-15T11:03:37.662Z,73.70
2023-04-15T11:06:04.600Z,72.92
2023-04-15T11:08:54.373Z,74.20
2023-04-15T11:11:21.070Z,74.72
2023-04-15T11:13:48.241Z,77.39
2023-04-15T11:16:15.083Z,74.46
2023-04-15T11:18:41.871Z,75.60
2023-04-15T11:21:08.635Z,74.22
2023-04-15T11:23:38.804Z,75.08
2023-04-15T11:26:08.402Z,74.63
2023-04-15T11:28:36.674Z,72.69
2023-04-15T11:31:10.817Z,68.30
2023-04-15T11:33:38.515Z,66.87
2023-04-15T11:36:05.563Z,70.07
2023-04-15T11:38:32.733Z,70.38
2023-04-15T11:40:59.589Z,72.66
2023-04-15T11:43:27.694Z,73.46
2023-04-15T11:45:55.292Z,72.15
2023-04-15T11:48:23.339Z,71.32
2023-04-15T11:50:53.617Z,67.62
2023-04-15T11:53:20.407Z,64.79
2023-04-15T11:55:50.597Z,66.78
2023-04-15T11:58:18.197Z,67.05
2023-04-15T12:00:50.330Z,64.63
2023-04-15T12:03:25.012Z,65.26
2023-04-15T12:06:19.031Z,64.48
2023-04-15T12:08:49.889Z,58.58
2023-04-15T12:11:16.815Z,60.32
2023-04-15T12:13:44.044Z,68.86
2023-04-15T12:16:12.169Z,65.89
2023-04-15T12:18:38.964Z,61.61
2023-04-15T12:21:09.824Z,61.09
2023-04-15T12:23:37.580Z,61.72
2023-04-15T12:26:05.599Z,62.80
2023-04-15T12:28:32.347Z,65.56
2023-04-15T12:30:59.077Z,66.27
2023-04-15T12:33:34.244Z,65.26
2023-04-15T12:36:01.012Z,63.97
2023-04-15T12:38:27.691Z,62.64
2023-04-15T12:40:54.632Z,62.28
2023-04-15T12:43:47.245Z,62.94
2023-04-15T12:46:14.110Z,61.63
2023-04-15T12:48:42.265Z,63.12
2023-04-15T12:51:08.953Z,63.76
2023-04-15T12:53:35.733Z,61.95
2023-04-15T12:56:02.459Z,64.83
2023-04-15T12:58:29.137Z,66.02
2023-04-15T13:00:56.013Z,65.51
2023-04-15T13:03:22.824Z,66.09
2023-04-15T13:05:51.036Z,64.42
2023-04-15T13:08:17.852Z,66.00
2023-04-15T13:10:44.589Z,66.32
2023-04-15T13:13:11.277Z,66.05
2023-04-15T13:15:38.040Z,65.81
2023-04-15T13:18:06.688Z,64.72
2023-04-15T13:20:33.448Z,66.49
2023-04-15T13:23:01.650Z,65.01
2023-04-15T13:25:28.349Z,64.36
2023-04-15T13:27:55.040Z,62.79
2023-04-15T13:30:21.793Z,61.05
2023-04-15T13:32:50.461Z,60.24
2023-04-15T13:35:17.652Z,59.38
2023-04-15T13:37:45.183Z,62.08
2023-04-15T13:40:13.514Z,60.73
2023-04-15T13:42:40.199Z,60.25
2023-04-15T13:45:08.172Z,58.13
2023-04-15T13:47:34.905Z,60.70
2023-04-15T13:50:01.686Z,61.35
2023-04-15T13:52:28.428Z,62.37
2023-04-15T13:55:08.470Z,62.66
2023-04-15T13:57:43.235Z,61.61
2023-04-15T14:00:10.985Z,62.41
2023-04-15T14:02:37.893Z,64.39
2023-04-15T14:05:05.201Z,66.06
2023-04-15T14:07:31.920Z,66.30
2023-04-15T14:09:58.609Z,66.61
2023-04-15T14:12:25.422Z,68.10
2023-04-15T14:14:53.532Z,68.47
2023-04-15T14:17:20.229Z,67.84
2023-04-15T14:19:47.210Z,67.46
2023-04-15T14:22:13.877Z,67.22
2023-04-15T14:24:40.567Z,66.92
2023-04-15T14:27:07.376Z,67.45
2023-04-15T14:29:34.120Z,66.78
2023-04-15T14:32:10.927Z,66.48
2023-04-15T14:34:39.268Z,67.15
2023-04-15T14:37:05.983Z,67.46
2023-04-15T14:39:32.717Z,68.75
2023-04-15T14:41:59.448Z,69.81
2023-04-15T14:44:26.146Z,68.87
2023-04-15T14:46:52.991Z,70.40
2023-04-15T14:49:21.080Z,70.14
2023-04-15T14:51:47.957Z,70.53
2023-04-15T14:54:15.103Z,71.17
2023-04-15T14:56:41.819Z,72.05
2023-04-15T14:59:08.543Z,72.56
2023-04-15T15:01:35.290Z,73.10
2023-04-15T15:04:02.183Z,73.17
2023-04-15T15:06:30.333Z,74.01
2023-04-15T15:08:57.525Z,74.73
2023-04-15T15:11:24.256Z,75.07
2023-04-15T15:13:50.980Z,75.69
2023-04-15T15:16:17.867Z,75.73
2023-04-15T15:18:44.993Z,75.79
2023-04-15T15:21:12.235Z,76.49
2023-04-15T15:23:40.305Z,76.37
2023-04-15T15:26:07.127Z,75.63
2023-04-15T15:28:34.144Z,75.54
2023-04-15T15:31:00.849Z,76.17
2023-04-15T15:33:29.553Z,77.18
2023-04-15T15:35:57.551Z,77.31
2023-04-15T15:38:24.246Z,77.28
2023-04-15T15:40:52.438Z,77.90
2023-04-15T15:43:19.144Z,78.60
2023-04-15T15:45:45.831Z,80.23
2023-04-15T15:48:12.603Z,81.28
2023-04-15T15:50:39.307Z,82.44
2023-04-15T15:53:06.001Z,83.03
2023-04-15T15:55:33.007Z,84.36
2023-04-15T15:58:01.061Z,86.50
2023-04-15T16:00:27.909Z,84.86
2023-04-15T16:03:06.902Z,85.10
2023-04-15T16:05:34.530Z,85.53
2023-04-15T16:08:01.228Z,84.87
2023-04-15T16:10:28.199Z,85.86
2023-04-15T16:12:54.945Z,84.69
2023-04-15T16:15:23.378Z,85.27
2023-04-15T16:17:50.446Z,87.73
2023-04-15T16:20:17.522Z,87.28
2023-04-15T16:22:44.360Z,87.64
2023-04-15T16:25:11.320Z,88.72
2023-04-15T16:27:54.230Z,88.28
2023-04-15T16:30:26.238Z,89.29
2023-04-15T16:32:53.157Z,88.78
2023-04-15T16:35:19.999Z,89.68
2023-04-15T16:37:46.721Z,89.33
2023-04-15T16:40:13.546Z,88.96
2023-04-15T16:42:40.227Z,88.84
2023-04-15T16:45:07.863Z,88.47
2023-04-15T16:47:35.967Z,88.31
2023-04-15T16:50:02.711Z,88.24
2023-04-15T16:52:29.472Z,88.76
2023-04-15T16:54:56.178Z,88.72
2023-04-15T16:57:22.877Z,88.57
2023-04-15T16:59:51.513Z,89.32
2023-04-15T17:02:18.585Z,89.53
2023-04-15T17:04:46.785Z,89.51
2023-04-15T17:07:13.731Z,90.21
2023-04-15T17:09:40.425Z,88.94
2023-04-15T17:12:07.449Z,89.04
2023-04-15T17:14:34.227Z,89.81
2023-04-15T17:17:01.194Z,88.98
2023-04-15T17:19:28.127Z,89.78
2023-04-15T17:21:56.238Z,90.17
2023-04-15T17:24:22.992Z,90.89
2023-04-15T17:26:49.698Z,90.92
2023-04-15T17:29:16.786Z,91.18
2023-04-15T17:31:43.531Z,91.96
2023-04-15T17:34:12.113Z,92.18
2023-04-15T17:36:40.055Z,91.91
2023-04-15T17:39:08.275Z,92.14
2023-04-15T17:41:34.974Z,92.48
2023-04-15T17:44:01.728Z,93.12
2023-04-15T17:46:28.827Z,93.09
2023-04-15T17:48:55.584Z,93.39
2023-04-15T17:51:22.317Z,94.83
2023-04-15T17:53:49.024Z,95.62
2023-04-15T17:56:17.133Z,96.18
2023-04-15T17:58:43.916Z,96.05
2023-04-15T18:01:10.578Z,96.73
2023-04-15T18:03:37.364Z,96.95
2023-04-15T18:06:04.520Z,96.35
2023-04-15T18:08:31.261Z,97.11
2023-04-15T18:10:57.975Z,97.56
2023-04-15T18:13:26.110Z,97.02
2023-04-15T18:15:52.806Z,96.12
2023-04-15T18:18:19.566Z,95.78
2023-04-15T18:20:46.282Z,96.13
2023-04-15T18:23:13.003Z,97.04
2023-04-15T18:25:39.752Z,97.35
2023-04-15T18:28:06.603Z,97.84
2023-04-15T18:30:34.757Z,98.20
2023-04-15T18:33:04.042Z,98.29
2023-04-15T18:35:31.158Z,98.53
2023-04-15T18:37:57.966Z,98.74
2023-04-15T18:40:24.637Z,98.93
2023-04-15T18:42:52.177Z,98.95
2023-04-15T18:45:19.194Z,99.00
2023-04-15T18:47:47.257Z,99.05
2023-04-15T18:50:14.140Z,98.99
2023-04-15T18:52:40.800Z,98.98
2023-04-15T18:55:07.912Z,99.07
2023-04-15T18:57:35.132Z,99.20
2023-04-15T19:00:02.564Z,99.28
2023-04-15T19:02:29.573Z,99.35
2023-04-15T19:04:57.788Z,99.36
2023-04-15T19:07:24.478Z,99.38
2023-04-15T19:09:51.175Z,99.41
2023-04-15T19:12:17.881Z,99.45
2023-04-15T19:14:44.597Z,99.51
2023-04-15T19:17:11.302Z,99.49
2023-04-15T19:19:37.985Z,99.51
2023-04-15T19:22:06.106Z,99.51
2023-04-15T19:24:33.218Z,99.53
2023-04-15T19:27:00.137Z,99.46
2023-04-15T19:29:26.973Z,99.44
2023-04-15T19:31:53.623Z,99.43
2023-04-15T19:34:20.298Z,99.32
2023-04-15T19:36:47.031Z,99.22
2023-04-15T19:39:15.124Z,99.09
2023-04-15T19:41:41.970Z,98.84
2023-04-15T19:44:08.616Z,98.64
2023-04-15T19:46:35.470Z,98.85
2023-04-15T19:49:02.374Z,99.04
2023-04-15T19:51:29.559Z,99.02
2023-04-15T19:53:56.301Z,99.07
2023-04-15T19:56:24.454Z,99.01
2023-04-15T19:58:51.161Z,98.97
2023-04-15T20:01:17.853Z,99.12
2023-04-15T20:03:44.781Z,99.06
2023-04-15T20:06:11.610Z,99.01
2023-04-15T20:08:38.297Z,98.79
2023-04-15T20:11:05.039Z,98.71
2023-04-15T20:13:33.422Z,98.68
2023-04-15T20:16:00.187Z,98.76
2023-04-15T20:18:26.965Z,98.75
2023-04-15T20:20:53.647Z,98.73
2023-04-15T20:23:20.343Z,98.70
2023-04-15T20:25:47.075Z,98.41
2023-04-15T20:28:13.752Z,98.20
2023-04-15T20:30:41.796Z,96.72
2023-04-15T20:33:08.527Z,97.50
2023-04-15T20:35:35.268Z,97.55
2023-04-15T20:38:02.039Z,97.46
2023-04-15T20:40:28.838Z,97.70
2023-04-15T20:42:55.563Z,97.70
2023-04-15T20:45:22.204Z,97.99
2023-04-15T20:47:50.773Z,98.09
2023-04-15T20:50:17.563Z,98.14
2023-04-15T20:52:44.268Z,97.81
2023-04-15T20:55:11.121Z,97.81
2023-04-15T20:57:37.780Z,98.26
2023-04-15T21:00:05.698Z,98.34
2023-04-15T21:02:32.533Z,98.34
2023-04-15T21:05:00.729Z,98.62
2023-04-15T21:07:27.373Z,98.75
2023-04-15T21:09:54.105Z,98.63
2023-04-15T21:12:20.764Z,99.01
2023-04-15T21:14:47.457Z,99.18
2023-04-15T21:17:14.243Z,99.29
2023-04-15T21:19:40.932Z,99.42
2023-04-15T21:22:08.991Z,99.40
2023-04-15T21:24:35.688Z,99.48
2023-04-15T21:27:02.395Z,99.49
2023-04-15T21:29:29.116Z,99.47
2023-04-15T21:31:55.900Z,99.37
2023-04-15T21:34:22.657Z,99.27
2023-04-15T21:36:49.409Z,99.21
2023-04-15T21:39:17.553Z,99.28
2023-04-15T21:41:44.301Z,99.29
2023-04-15T21:44:12.621Z,99.29
2023-04-15T21:46:41.362Z,99.18
2023-04-15T21:49:08.386Z,99.12
2023-04-15T21:51:35.253Z,98.97
2023-04-15T21:54:02.286Z,99.08
2023-04-15T21:56:30.445Z,98.70
2023-04-15T21:58:57.385Z,98.22
2023-04-15T22:01:24.336Z,98.18
2023-04-15T22:03:51.726Z,98.12
2023-04-15T22:06:18.555Z,98.42
2023-04-15T22:08:56.028Z,98.50
2023-04-15T22:11:23.298Z,98.46
2023-04-15T22:13:51.378Z,98.40
2023-04-15T22:16:18.097Z,98.07
2023-04-15T22:18:44.813Z,97.97
2023-04-15T22:21:12.532Z,98.21
2023-04-15T22:23:39.264Z,98.06
2023-04-15T22:26:06.754Z,98.22
2023-04-15T22:28:33.441Z,98.05
2023-04-15T22:31:01.576Z,98.02
2023-04-15T22:33:28.301Z,98.41
2023-04-15T22:35:55.020Z,98.16
2023-04-15T22:38:21.711Z,98.40
2023-04-15T22:40:48.399Z,98.24
2023-04-15T22:43:15.095Z,98.17
2023-04-15T22:45:41.810Z,98.08
2023-04-15T22:48:09.888Z,98.44
2023-04-15T22:50:37.246Z,98.72
2023-04-15T22:53:03.940Z,98.99
2023-04-15T22:55:30.809Z,99.01
2023-04-15T22:57:57.532Z,98.76
2023-04-15T23:00:24.235Z,98.52
2023-04-15T23:02:51.110Z,98.72
2023-04-15T23:05:19.901Z,98.96
2023-04-15T23:07:46.623Z,98.98
2023-04-15T23:10:13.327Z,99.08
2023-04-15T23:12:40.075Z,99.15
2023-04-15T23:15:07.979Z,99.01
2023-04-15T23:17:34.711Z,99.11
2023-04-15T23:20:01.405Z,99.26
2023-04-15T23:22:29.513Z,99.38
2023-04-15T23:25:21.332Z,99.41
2023-04-15T23:27:47.992Z,99.54
2023-04-15T23:30:14.659Z,99.33
2023-04-15T23:32:41.408Z,99.40
2023-04-15T23:35:08.938Z,99.44
2023-04-15T23:37:37.068Z,99.45
2023-04-15T23:40:04.539Z,99.54
2023-04-15T23:42:31.260Z,99.38
2023-04-15T23:44:57.970Z,99.39
2023-04-15T23:47:24.720Z,99.39
2023-04-15T23:49:51.466Z,99.41
2023-04-15T23:52:18.151Z,99.38
2023-04-15T23:54:46.327Z,99.53
2023-04-15T23:57:13.003Z,99.53
2023-04-15T23:59:39.686Z,99.61
